createdAt,value
2017-06-06T00:00:20.205Z,17.57
2017-06-06T00:05:16.745Z,17.51
2017-06-06T00:10:12.915Z,17.33
2017-06-06T00:15:09.732Z,17.41
2017-06-06T00:20:06.032Z,17.26
2017-06-06T00:25:01.541Z,17.16
2017-06-06T00:29:57.404Z,17.01
2017-06-06T00:34:53.343Z,17.02
2017-06-06T00:39:49.164Z,16.94
2017-06-06T00:44:45.044Z,16.76
2017-06-06T00:49:42.093Z,16.86
2017-06-06T00:54:37.650Z,16.91
2017-06-06T00:59:34.383Z,16.87
2017-06-06T01:04:29.943Z,16.72
2017-06-06T01:09:26.951Z,16.54
2017-06-06T01:14:23.002Z,16.54
2017-06-06T01:19:18.775Z,16.60
2017-06-06T01:24:14.497Z,16.65
2017-06-06T01:29:10.333Z,16.43
2017-06-06T01:34:06.168Z,16.56
2017-06-06T01:39:01.965Z,16.36
2017-06-06T01:43:58.481Z,16.46
2017-06-06T01:48:54.343Z,16.39
2017-06-06T01:53:50.042Z,16.38
2017-06-06T01:58:45.915Z,16.50
2017-06-06T02:03:41.823Z,16.46
2017-06-06T02:08:38.688Z,16.41
2017-06-06T02:13:34.609Z,16.43
2017-06-06T02:18:30.465Z,16.39
2017-06-06T02:23:26.191Z,16.32
2017-06-06T02:28:22.283Z,16.26
2017-06-06T02:33:18.106Z,16.31
2017-06-06T02:38:14.002Z,16.38
2017-06-06T02:43:09.869Z,16.31
2017-06-06T02:48:06.122Z,16.38
2017-06-06T02:53:02.868Z,16.42
2017-06-06T02:57:58.895Z,16.38
2017-06-06T03:02:55.738Z,16.36
2017-06-06T03:07:51.318Z,16.43
2017-06-06T03:12:47.596Z,16.33
2017-06-06T03:17:44.593Z,16.35
2017-06-06T03:22:40.347Z,16.38
2017-06-06T03:27:37.608Z,16.41
2017-06-06T03:32:33.741Z,16.38
2017-06-06T03:37:30.677Z,16.41
2017-06-06T03:42:26.363Z,16.54
2017-06-06T03:47:21.924Z,16.56
2017-06-06T03:52:18.813Z,16.56
2017-06-06T03:57:14.443Z,16.64
2017-06-06T04:02:10.588Z,16.47
2017-06-06T04:07:06.510Z,16.56
2017-06-06T04:12:03.131Z,16.50
2017-06-06T04:17:00.080Z,16.68
2017-06-06T04:21:56.471Z,16.57
2017-06-06T04:26:53.154Z,16.71
2017-06-06T04:31:49.264Z,16.66
2017-06-06T04:36:45.270Z,16.79
2017-06-06T04:41:41.758Z,16.97
2017-06-06T04:46:37.798Z,17.09
2017-06-06T04:51:35.811Z,17.12
2017-06-06T04:56:31.033Z,17.11
2017-06-06T05:01:26.938Z,17.20
2017-06-06T05:06:22.923Z,17.16
2017-06-06T05:11:20.509Z,17.60
2017-06-06T05:16:17.721Z,17.64
2017-06-06T05:21:13.170Z,17.64
2017-06-06T05:26:09.992Z,17.70
2017-06-06T05:31:05.766Z,17.79
2017-06-06T05:36:01.902Z,18.05
2017-06-06T05:40:58.252Z,18.35
2017-06-06T05:45:54.368Z,18.35
2017-06-06T05:50:50.477Z,18.53
2017-06-06T05:55:46.457Z,18.59
2017-06-06T06:00:43.786Z,18.60
2017-06-06T06:05:39.605Z,18.47
2017-06-06T06:10:35.498Z,18.52
2017-06-06T06:15:31.675Z,18.71
2017-06-06T06:20:27.710Z,18.80
2017-06-06T06:25:23.904Z,18.90
2017-06-06T06:30:21.127Z,18.93
2017-06-06T06:35:16.942Z,19.12
2017-06-06T06:40:12.892Z,19.30
2017-06-06T06:45:09.013Z,19.49
2017-06-06T06:50:05.054Z,19.63
2017-06-06T06:55:01.804Z,19.66
2017-06-06T06:59:57.433Z,19.67
2017-06-06T07:04:54.212Z,19.45
2017-06-06T07:09:51.860Z,19.33
2017-06-06T07:14:47.348Z,19.31
2017-06-06T07:19:43.404Z,19.47
2017-06-06T07:24:41.845Z,19.52
2017-06-06T07:29:36.996Z,19.36
2017-06-06T07:34:32.568Z,19.21
2017-06-06T07:39:29.499Z,19.21
2017-06-06T07:44:25.925Z,19.14
2017-06-06T07:49:23.005Z,19.31
2017-06-06T07:54:18.936Z,19.39
2017-06-06T07:59:14.890Z,19.37
2017-06-06T08:04:11.834Z,19.39
2017-06-06T08:09:08.539Z,19.34
2017-06-06T08:14:04.246Z,19.54
2017-06-06T08:19:00.163Z,19.59
2017-06-06T08:23:56.272Z,19.71
2017-06-06T08:28:52.680Z,19.95
2017-06-06T08:33:49.993Z,20.19
2017-06-06T08:38:48.434Z,20.28
2017-06-06T08:43:43.465Z,20.02
2017-06-06T08:48:39.023Z,19.86
2017-06-06T08:53:34.775Z,19.71
2017-06-06T08:58:30.527Z,19.62
2017-06-06T09:03:26.038Z,19.67
2017-06-06T09:08:21.775Z,19.54
2017-06-06T09:13:18.193Z,19.33
2017-06-06T09:18:14.027Z,19.11
2017-06-06T09:23:09.619Z,19.02
2017-06-06T09:28:06.683Z,18.96
2017-06-06T09:33:02.312Z,18.95
2017-06-06T09:37:58.160Z,18.96
2017-06-06T09:42:55.320Z,19.08
2017-06-06T09:47:51.963Z,19.40
2017-06-06T09:52:48.317Z,19.31
2017-06-06T09:57:45.711Z,19.18
2017-06-06T10:02:41.572Z,19.27
2017-06-06T10:07:37.752Z,19.31
2017-06-06T10:12:34.524Z,18.77
2017-06-06T10:17:30.602Z,18.22
2017-06-06T10:22:26.573Z,17.71
2017-06-06T10:27:21.760Z,17.57
2017-06-06T10:32:18.543Z,17.46
2017-06-06T10:37:15.499Z,17.54
2017-06-06T10:42:11.335Z,17.76
2017-06-06T10:47:08.349Z,18.08
2017-06-06T10:52:05.309Z,18.23
2017-06-06T10:57:00.627Z,18.01
2017-06-06T11:01:57.600Z,17.85
2017-06-06T11:06:53.104Z,17.26
2017-06-06T11:11:48.886Z,16.96
2017-06-06T11:16:47.045Z,17.08
2017-06-06T11:21:43.620Z,17.29
2017-06-06T11:26:40.315Z,17.38
2017-06-06T11:31:37.399Z,17.27
2017-06-06T11:36:33.782Z,17.12
2017-06-06T11:41:29.837Z,16.76
2017-06-06T11:46:26.669Z,16.57
2017-06-06T11:51:23.143Z,16.50
2017-06-06T11:56:19.004Z,16.58
2017-06-06T12:01:15.758Z,16.53
2017-06-06T12:06:11.775Z,16.58
2017-06-06T12:11:07.825Z,16.72
2017-06-06T12:16:04.851Z,16.72
2017-06-06T12:21:00.652Z,17.15
2017-06-06T12:25:59.382Z,17.74
2017-06-06T12:30:55.872Z,18.22
2017-06-06T12:35:53.336Z,18.71
2017-06-06T12:40:52.847Z,19.14
2017-06-06T12:45:47.546Z,18.96
2017-06-06T12:50:44.741Z,19.34
2017-06-06T12:55:39.954Z,18.84
2017-06-06T13:00:37.485Z,19.54
2017-06-06T13:05:35.351Z,20.31
2017-06-06T13:10:33.504Z,20.75
2017-06-06T13:15:29.616Z,20.32
2017-06-06T13:20:25.175Z,19.99
2017-06-06T13:25:18.849Z,19.73
2017-06-06T13:30:15.607Z,20.26
2017-06-06T13:35:12.366Z,20.70
2017-06-06T13:40:08.431Z,20.43
2017-06-06T13:45:04.335Z,20.29
2017-06-06T13:49:59.962Z,20.11
2017-06-06T13:54:55.197Z,19.86
2017-06-06T13:59:50.636Z,19.91
2017-06-06T14:04:46.115Z,19.94
2017-06-06T14:09:41.676Z,19.71
2017-06-06T14:14:37.163Z,19.55
2017-06-06T14:19:32.763Z,19.48
2017-06-06T14:24:28.390Z,19.66
2017-06-06T14:29:24.520Z,19.88
2017-06-06T14:34:21.168Z,19.56
2017-06-06T14:39:16.849Z,19.33
2017-06-06T14:44:13.479Z,19.12
2017-06-06T14:49:10.075Z,19.11
2017-06-06T14:54:05.798Z,19.07
2017-06-06T14:59:01.810Z,18.74
2017-06-06T15:03:57.725Z,18.77
2017-06-06T15:08:55.382Z,18.86
2017-06-06T15:13:51.048Z,18.90
2017-06-06T15:18:47.878Z,18.84
2017-06-06T15:23:43.482Z,18.90
2017-06-06T15:28:39.324Z,18.98
2017-06-06T15:33:36.101Z,18.33
2017-06-06T15:38:32.684Z,18.22
2017-06-06T15:43:28.234Z,18.16
2017-06-06T15:48:24.591Z,18.22
2017-06-06T15:53:20.751Z,18.34
2017-06-06T15:58:16.183Z,18.31
2017-06-06T16:03:13.577Z,18.75
2017-06-06T16:08:10.061Z,18.88
2017-06-06T16:13:06.637Z,19.09
2017-06-06T16:18:03.667Z,19.02
2017-06-06T16:23:00.326Z,18.88
2017-06-06T16:27:57.073Z,19.08
2017-06-06T16:32:52.674Z,18.83
2017-06-06T16:37:48.757Z,18.71
2017-06-06T16:42:44.740Z,18.58
2017-06-06T16:47:40.809Z,18.53
2017-06-06T16:52:37.321Z,18.43
2017-06-06T16:57:35.288Z,18.43
2017-06-06T17:02:31.958Z,18.47
2017-06-06T17:07:27.753Z,18.23
2017-06-06T17:12:25.885Z,18.20
2017-06-06T17:17:21.822Z,18.10
2017-06-06T17:22:18.461Z,17.89
2017-06-06T17:27:13.923Z,17.74
2017-06-06T17:32:10.788Z,17.38
2017-06-06T17:37:06.120Z,16.58
2017-06-06T17:42:02.826Z,16.16
2017-06-06T17:46:58.318Z,16.29
2017-06-06T17:51:54.225Z,16.53
2017-06-06T17:56:51.195Z,16.75
2017-06-06T18:01:47.005Z,16.68
2017-06-06T18:06:42.601Z,16.56
2017-06-06T18:11:38.571Z,16.56
2017-06-06T18:16:35.037Z,16.64
2017-06-06T18:21:31.199Z,16.75
2017-06-06T18:26:27.160Z,16.81
2017-06-06T18:31:22.999Z,16.81
2017-06-06T18:36:18.758Z,16.78
2017-06-06T18:41:14.499Z,16.58
2017-06-06T18:46:10.192Z,16.64
2017-06-06T18:51:06.386Z,16.53
2017-06-06T18:56:02.186Z,16.57
2017-06-06T19:00:58.218Z,16.47
2017-06-06T19:05:56.429Z,16.57
2017-06-06T19:10:51.511Z,16.58
2017-06-06T19:15:47.644Z,16.53
2017-06-06T19:20:43.709Z,16.65
2017-06-06T19:25:39.543Z,16.50
2017-06-06T19:30:36.439Z,16.35
2017-06-06T19:35:31.971Z,16.09
2017-06-06T19:40:27.562Z,15.80
2017-06-06T19:45:24.186Z,15.82
2017-06-06T19:50:22.173Z,15.82
2017-06-06T19:55:18.683Z,15.79
2017-06-06T20:00:15.186Z,15.75
2017-06-06T20:05:12.945Z,15.67
2017-06-06T20:10:09.561Z,15.67
2017-06-06T20:15:06.142Z,15.76
2017-06-06T20:20:04.659Z,15.73
2017-06-06T20:25:00.930Z,15.72
2017-06-06T20:29:56.489Z,15.64
2017-06-06T20:34:52.456Z,15.52
2017-06-06T20:39:48.196Z,15.62
2017-06-06T20:44:44.467Z,15.55
2017-06-06T20:49:40.308Z,15.52
2017-06-06T20:54:36.003Z,15.43
2017-06-06T20:59:32.044Z,15.42
2017-06-06T21:04:27.681Z,15.43
2017-06-06T21:09:23.526Z,15.42
2017-06-06T21:14:19.225Z,15.29
2017-06-06T21:19:15.179Z,15.33
2017-06-06T21:24:11.189Z,15.33
2017-06-06T21:29:07.489Z,15.25
2017-06-06T21:34:03.277Z,15.22
2017-06-06T21:39:01.270Z,15.09
2017-06-06T21:43:58.172Z,15.04
2017-06-06T21:48:54.730Z,14.99
2017-06-06T21:53:50.712Z,14.96
2017-06-06T21:58:46.517Z,14.96
2017-06-06T22:03:42.732Z,14.92
2017-06-06T22:08:38.935Z,14.94
2017-06-06T22:13:34.817Z,14.85
2017-06-06T22:18:31.633Z,14.68
2017-06-06T22:23:27.665Z,14.69
2017-06-06T22:28:24.481Z,14.54
2017-06-06T22:33:20.002Z,14.55
2017-06-06T22:38:16.213Z,14.68
2017-06-06T22:43:12.255Z,14.63
2017-06-06T22:48:08.908Z,14.51
2017-06-06T22:53:04.458Z,14.30
2017-06-06T22:58:01.237Z,14.41
2017-06-06T23:02:56.836Z,14.33
2017-06-06T23:07:52.600Z,14.30
2017-06-06T23:12:48.700Z,14.25
2017-06-06T23:17:44.713Z,14.18
2017-06-06T23:22:40.600Z,13.99
2017-06-06T23:27:36.213Z,14.14
2017-06-06T23:32:31.781Z,14.04
2017-06-06T23:37:28.072Z,13.97
2017-06-06T23:42:23.725Z,13.86
2017-06-06T23:47:19.786Z,13.90
2017-06-06T23:52:16.592Z,13.86
2017-06-06T23:57:12.299Z,13.93
